createdAt,value
2018-09-30T00:01:24.689Z,5.92
2018-09-30T00:03:52.234Z,5.42
2018-09-30T00:06:19.758Z,3.85
2018-09-30T00:08:47.356Z,11.05
2018-09-30T00:11:14.882Z,5.35
2018-09-30T00:13:42.412Z,11.85
2018-09-30T00:16:09.963Z,4.30
2018-09-30T00:18:37.493Z,7.35
2018-09-30T00:21:05.042Z,2.95
2018-09-30T00:23:38.242Z,6.72
2018-09-30T00:26:11.933Z,4.80
2018-09-30T00:28:39.455Z,4.67
2018-09-30T00:31:07.005Z,5.28
2018-09-30T00:33:38.617Z,5.30
2018-09-30T00:36:06.241Z,4.85
2018-09-30T00:38:33.766Z,4.67
2018-09-30T00:41:01.311Z,4.22
2018-09-30T00:43:28.822Z,4.03
2018-09-30T00:45:56.380Z,3.87
2018-09-30T00:48:23.880Z,5.92
2018-09-30T00:50:51.424Z,3.60
2018-09-30T00:53:18.954Z,6.15
2018-09-30T00:55:46.470Z,3.58
2018-09-30T00:58:14.011Z,2.95
2018-09-30T01:00:41.616Z,8.38
2018-09-30T01:03:09.136Z,9.18
2018-09-30T01:05:36.680Z,6.03
2018-09-30T01:08:04.196Z,4.55
2018-09-30T01:10:31.728Z,7.10
2018-09-30T01:12:59.216Z,8.70
2018-09-30T01:15:26.788Z,5.50
2018-09-30T01:17:54.314Z,4.50
2018-09-30T01:20:21.879Z,2.45
2018-09-30T01:22:49.438Z,5.03
2018-09-30T01:25:16.964Z,11.18
2018-09-30T01:27:44.525Z,5.80
2018-09-30T01:30:12.090Z,6.05
2018-09-30T01:32:39.620Z,3.60
2018-09-30T01:35:07.229Z,6.87
2018-09-30T01:37:34.830Z,4.92
2018-09-30T01:40:02.371Z,4.30
2018-09-30T01:42:30.003Z,4.00
2018-09-30T01:44:57.503Z,9.00
2018-09-30T01:47:25.044Z,3.98
2018-09-30T01:49:52.548Z,3.02
2018-09-30T01:52:31.350Z,4.25
2018-09-30T01:54:58.904Z,11.80
2018-09-30T01:57:26.458Z,7.20
2018-09-30T01:59:53.976Z,3.72
2018-09-30T02:02:21.550Z,4.70
2018-09-30T02:04:49.079Z,10.93
2018-09-30T02:07:16.632Z,4.37
2018-09-30T02:09:44.192Z,6.50
2018-09-30T02:12:11.727Z,2.98
2018-09-30T02:14:39.285Z,9.88
2018-09-30T02:17:06.823Z,2.67
2018-09-30T02:19:34.324Z,3.20
2018-09-30T02:22:01.823Z,3.67
2018-09-30T02:24:29.352Z,3.95
2018-09-30T02:26:56.871Z,4.33
2018-09-30T02:29:24.422Z,9.48
2018-09-30T02:31:51.936Z,9.98
2018-09-30T02:34:19.458Z,7.03
2018-09-30T02:36:47.024Z,2.50
2018-09-30T02:39:14.561Z,3.83
2018-09-30T02:41:42.094Z,6.03
2018-09-30T02:44:09.805Z,3.52
2018-09-30T02:46:37.346Z,5.28
2018-09-30T02:49:04.965Z,7.65
2018-09-30T02:51:32.494Z,4.58
2018-09-30T02:54:00.014Z,4.47
2018-09-30T02:56:27.551Z,2.90
2018-09-30T02:58:55.070Z,4.65
2018-09-30T03:01:22.592Z,6.50
2018-09-30T03:03:50.151Z,5.42
2018-09-30T03:06:23.225Z,3.55
2018-09-30T03:08:56.393Z,3.98
2018-09-30T03:11:23.933Z,5.85
2018-09-30T03:13:51.448Z,5.60
2018-09-30T03:16:18.959Z,6.37
2018-09-30T03:18:46.520Z,3.75
2018-09-30T03:21:14.090Z,3.75
2018-09-30T03:23:41.603Z,2.47
2018-09-30T03:26:09.107Z,3.83
2018-09-30T03:28:36.686Z,6.70
2018-09-30T03:31:04.247Z,4.45
2018-09-30T03:33:31.912Z,4.35
2018-09-30T03:35:59.681Z,5.45
2018-09-30T03:38:27.188Z,8.78
2018-09-30T03:40:54.714Z,4.53
2018-09-30T03:43:22.199Z,4.03
2018-09-30T03:45:49.750Z,4.05
2018-09-30T03:48:17.324Z,3.65
2018-09-30T03:50:44.901Z,3.12
2018-09-30T03:53:12.431Z,5.47
2018-09-30T03:55:40.084Z,6.17
2018-09-30T03:58:07.603Z,4.22
2018-09-30T04:00:35.151Z,11.40
2018-09-30T04:03:02.694Z,6.67
2018-09-30T04:05:30.231Z,5.78
2018-09-30T04:07:58.192Z,14.25
2018-09-30T04:10:25.698Z,5.33
2018-09-30T04:12:53.231Z,5.67
2018-09-30T04:15:20.761Z,2.85
2018-09-30T04:17:48.317Z,7.80
2018-09-30T04:20:15.822Z,11.30
2018-09-30T04:22:43.325Z,3.45
2018-09-30T04:25:10.849Z,5.55
2018-09-30T04:27:38.377Z,5.35
2018-09-30T04:30:05.974Z,15.95
2018-09-30T04:32:33.517Z,4.85
2018-09-30T04:35:01.043Z,9.40
2018-09-30T04:37:28.579Z,3.00
2018-09-30T04:39:56.083Z,6.95
2018-09-30T04:42:23.577Z,6.25
2018-09-30T04:44:51.097Z,6.25
2018-09-30T04:47:18.633Z,4.42
2018-09-30T04:49:46.201Z,5.92
2018-09-30T04:52:13.717Z,5.50
2018-09-30T04:54:41.209Z,3.85
2018-09-30T04:57:08.750Z,6.37
2018-09-30T04:59:36.285Z,4.67
2018-09-30T05:02:03.830Z,3.50
2018-09-30T05:04:31.338Z,5.55
2018-09-30T05:06:58.867Z,2.60
2018-09-30T05:09:26.376Z,4.10
2018-09-30T05:11:53.905Z,3.70
2018-09-30T05:14:21.420Z,5.42
2018-09-30T05:16:48.930Z,9.08
2018-09-30T05:19:16.477Z,5.42
2018-09-30T05:21:44.003Z,6.65
2018-09-30T05:24:11.526Z,4.97
2018-09-30T05:26:39.038Z,5.65
2018-09-30T05:29:06.778Z,4.62
2018-09-30T05:31:34.334Z,1.72
2018-09-30T05:34:01.870Z,4.65
2018-09-30T05:36:29.360Z,3.90
2018-09-30T05:38:56.867Z,3.87
2018-09-30T05:41:24.402Z,5.70
2018-09-30T05:43:51.936Z,1.87
2018-09-30T05:46:19.518Z,5.15
2018-09-30T05:48:47.055Z,8.48
2018-09-30T05:51:14.590Z,4.80
2018-09-30T05:53:42.154Z,4.62
2018-09-30T05:56:09.686Z,2.27
2018-09-30T05:58:37.216Z,3.25
2018-09-30T06:01:04.926Z,15.63
2018-09-30T06:03:32.611Z,5.75
2018-09-30T06:06:00.166Z,6.35
2018-09-30T06:08:27.783Z,8.98
2018-09-30T06:10:55.332Z,26.50
2018-09-30T06:13:22.877Z,21.75
2018-09-30T06:15:50.433Z,10.38
2018-09-30T06:18:17.950Z,13.58
2018-09-30T06:20:45.521Z,6.55
2018-09-30T06:23:13.082Z,9.75
2018-09-30T06:25:40.599Z,7.45
2018-09-30T06:28:08.182Z,12.50
2018-09-30T06:30:35.719Z,5.35
2018-09-30T06:33:03.363Z,6.53
2018-09-30T06:35:30.907Z,4.67
2018-09-30T06:37:58.431Z,7.40
2018-09-30T06:40:26.019Z,4.47
2018-09-30T06:42:53.520Z,5.67
2018-09-30T06:45:21.119Z,5.70
2018-09-30T06:47:48.631Z,4.70
2018-09-30T06:50:16.157Z,4.30
2018-09-30T06:52:43.705Z,4.25
2018-09-30T06:55:11.254Z,4.15
2018-09-30T06:57:38.813Z,3.50
2018-09-30T07:00:06.444Z,5.92
2018-09-30T07:02:34.014Z,7.08
2018-09-30T07:05:01.615Z,4.40
2018-09-30T07:07:29.125Z,5.08
2018-09-30T07:09:56.690Z,8.08
2018-09-30T07:12:24.241Z,7.33
2018-09-30T07:14:51.808Z,7.28
2018-09-30T07:17:19.683Z,14.83
2018-09-30T07:19:47.237Z,7.87
2018-09-30T07:22:14.840Z,6.20
2018-09-30T07:24:42.334Z,7.58
2018-09-30T07:27:09.863Z,12.15
2018-09-30T07:29:37.387Z,4.00
2018-09-30T07:32:04.928Z,12.43
2018-09-30T07:34:32.484Z,6.60
2018-09-30T07:37:00.235Z,4.62
2018-09-30T07:39:27.829Z,4.58
2018-09-30T07:41:55.413Z,7.47
2018-09-30T07:44:23.040Z,13.65
2018-09-30T07:46:50.688Z,10.13
2018-09-30T07:49:18.175Z,7.30
2018-09-30T07:51:45.732Z,6.50
2018-09-30T07:54:13.262Z,12.07
2018-09-30T07:56:40.805Z,10.20
2018-09-30T07:59:08.501Z,9.13
2018-09-30T08:01:36.027Z,8.15
2018-09-30T08:04:03.671Z,16.40
2018-09-30T08:06:31.315Z,7.75
2018-09-30T08:08:59.021Z,8.75
2018-09-30T08:11:26.586Z,8.63
2018-09-30T08:13:54.166Z,8.78
2018-09-30T08:16:21.734Z,9.18
2018-09-30T08:18:49.266Z,11.63
2018-09-30T08:21:16.831Z,9.75
2018-09-30T08:23:44.410Z,9.35
2018-09-30T08:26:12.017Z,13.38
2018-09-30T08:28:39.516Z,11.10
2018-09-30T08:31:07.112Z,11.28
2018-09-30T08:33:34.691Z,10.95
2018-09-30T08:36:08.172Z,12.88
2018-09-30T08:38:36.394Z,10.88
2018-09-30T08:41:05.196Z,17.35
2018-09-30T08:43:33.975Z,12.87
2018-09-30T08:46:01.614Z,13.13
2018-09-30T08:48:29.178Z,11.97
2018-09-30T08:50:57.096Z,13.50
2018-09-30T08:53:25.055Z,9.73
2018-09-30T08:55:53.098Z,12.53
2018-09-30T08:58:20.620Z,13.07
2018-09-30T09:00:48.216Z,13.87
2018-09-30T09:03:15.825Z,15.30
2018-09-30T09:05:43.377Z,10.80
2018-09-30T09:08:10.964Z,18.10
2018-09-30T09:10:38.472Z,13.90
2018-09-30T09:13:06.106Z,10.47
2018-09-30T09:15:34.609Z,14.07
2018-09-30T09:18:02.181Z,10.80
2018-09-30T09:20:29.757Z,13.20
2018-09-30T09:22:57.333Z,13.93
2018-09-30T09:25:24.957Z,12.33
2018-09-30T09:27:52.550Z,16.70
2018-09-30T09:30:20.086Z,11.70
2018-09-30T09:32:47.662Z,13.70
2018-09-30T09:35:15.293Z,13.80
2018-09-30T09:37:42.753Z,11.50
2018-09-30T09:40:10.719Z,34.17
2018-09-30T09:42:38.458Z,13.00
2018-09-30T09:45:06.423Z,19.33
2018-09-30T09:47:33.977Z,14.20
2018-09-30T09:50:01.576Z,14.80
2018-09-30T09:52:29.166Z,14.50
2018-09-30T09:54:56.682Z,20.03
2018-09-30T09:57:24.286Z,16.70
2018-09-30T09:59:52.680Z,20.77
2018-09-30T10:02:20.501Z,21.10
2018-09-30T10:04:48.065Z,24.40
2018-09-30T10:07:15.626Z,14.40
2018-09-30T10:09:43.220Z,17.73
2018-09-30T10:12:10.881Z,17.87
2018-09-30T10:14:38.425Z,16.40
2018-09-30T10:17:06.133Z,23.63
2018-09-30T10:19:33.778Z,17.20
2018-09-30T10:22:01.379Z,23.33
2018-09-30T10:24:29.146Z,20.87
2018-09-30T10:26:56.730Z,24.80
2018-09-30T10:29:24.293Z,24.20
2018-09-30T10:31:51.863Z,25.63
2018-09-30T10:34:19.453Z,29.50
2018-09-30T10:36:47.021Z,22.43
2018-09-30T10:39:14.773Z,28.90
2018-09-30T10:41:42.136Z,23.37
2018-09-30T10:44:09.722Z,24.10
2018-09-30T10:46:37.358Z,20.40
2018-09-30T10:49:05.386Z,27.03
2018-09-30T10:51:32.976Z,23.10
2018-09-30T10:54:00.548Z,26.17
2018-09-30T10:56:28.157Z,25.60
2018-09-30T10:58:55.993Z,24.33
2018-09-30T11:01:23.585Z,23.57
2018-09-30T11:03:51.179Z,26.00
2018-09-30T11:06:18.778Z,22.80
2018-09-30T11:08:46.347Z,24.17
2018-09-30T11:11:13.900Z,25.53
2018-09-30T11:13:41.462Z,25.47
2018-09-30T11:16:09.044Z,34.23
2018-09-30T11:18:36.582Z,29.60
2018-09-30T11:21:05.266Z,30.50
2018-09-30T11:23:32.831Z,25.33
2018-09-30T11:26:00.491Z,26.03
2018-09-30T11:28:28.067Z,29.87
2018-09-30T11:30:55.638Z,32.03
2018-09-30T11:33:23.205Z,31.97
2018-09-30T11:35:50.799Z,28.80
2018-09-30T11:38:18.400Z,27.20
2018-09-30T11:40:45.982Z,25.20
2018-09-30T11:43:13.562Z,24.50
2018-09-30T11:45:41.139Z,25.20
2018-09-30T11:48:08.700Z,27.40
2018-09-30T11:50:36.257Z,25.83
2018-09-30T11:53:03.850Z,29.10
2018-09-30T11:55:31.385Z,21.73
2018-09-30T11:57:58.946Z,27.50
2018-09-30T12:00:26.545Z,26.40
2018-09-30T12:02:54.081Z,24.63
2018-09-30T12:05:21.658Z,26.07
2018-09-30T12:07:49.222Z,23.60
2018-09-30T12:10:16.809Z,30.97
2018-09-30T12:12:44.357Z,28.27
2018-09-30T12:15:11.941Z,30.63
2018-09-30T12:17:39.525Z,25.40
2018-09-30T12:20:07.147Z,28.70
2018-09-30T12:22:34.685Z,28.17
2018-09-30T12:25:02.255Z,27.47
2018-09-30T12:27:29.795Z,23.53
2018-09-30T12:29:57.383Z,30.73
2018-09-30T12:32:24.908Z,28.30
2018-09-30T12:34:52.448Z,30.03
2018-09-30T12:37:20.020Z,26.23
2018-09-30T12:39:47.639Z,27.87
2018-09-30T12:42:15.162Z,26.57
2018-09-30T12:44:42.688Z,25.80
2018-09-30T12:47:10.243Z,22.30
2018-09-30T12:49:37.808Z,27.27
2018-09-30T12:52:05.413Z,21.83
2018-09-30T12:54:32.918Z,21.47
2018-09-30T12:57:00.510Z,23.67
2018-09-30T12:59:28.080Z,20.60
2018-09-30T13:01:55.662Z,28.77
2018-09-30T13:04:23.219Z,27.33
2018-09-30T13:06:50.768Z,21.93
2018-09-30T13:09:18.324Z,26.80
2018-09-30T13:11:45.871Z,20.63
2018-09-30T13:14:13.444Z,25.00
2018-09-30T13:16:41.034Z,20.90
2018-09-30T13:19:08.588Z,23.07
2018-09-30T13:21:36.132Z,22.57
2018-09-30T13:24:03.708Z,24.03
2018-09-30T13:26:31.279Z,19.73
2018-09-30T13:28:58.860Z,26.27
2018-09-30T13:31:26.422Z,27.20
2018-09-30T13:33:53.990Z,21.00
2018-09-30T13:36:21.548Z,20.23
2018-09-30T13:38:49.103Z,22.83
2018-09-30T13:41:16.762Z,24.10
2018-09-30T13:43:44.253Z,21.60
2018-09-30T13:46:11.893Z,22.60
2018-09-30T13:48:39.435Z,20.40
2018-09-30T13:51:07.017Z,26.40
2018-09-30T13:53:34.553Z,19.43
2018-09-30T13:56:02.146Z,23.80
2018-09-30T13:58:29.794Z,25.17
2018-09-30T14:00:57.279Z,18.30
2018-09-30T14:03:24.885Z,20.87
2018-09-30T14:05:52.579Z,24.60
2018-09-30T14:08:20.142Z,21.77
2018-09-30T14:10:47.701Z,19.53
2018-09-30T14:13:15.237Z,23.40
2018-09-30T14:15:42.859Z,21.50
2018-09-30T14:18:10.402Z,19.20
2018-09-30T14:20:37.971Z,23.80
2018-09-30T14:23:05.535Z,20.20
2018-09-30T14:25:33.073Z,31.93
2018-09-30T14:28:00.591Z,18.23
2018-09-30T14:30:28.186Z,22.70
2018-09-30T14:32:55.767Z,17.33
2018-09-30T14:35:23.291Z,20.90
2018-09-30T14:37:50.877Z,21.13
2018-09-30T14:40:18.421Z,18.00
2018-09-30T14:42:46.001Z,23.63
2018-09-30T14:45:13.566Z,21.27
2018-09-30T14:47:41.109Z,21.40
2018-09-30T14:50:08.630Z,17.73
2018-09-30T14:52:36.192Z,21.97
2018-09-30T14:55:03.848Z,31.00
2018-09-30T14:57:31.385Z,22.30
2018-09-30T14:59:58.980Z,18.57
2018-09-30T15:02:26.493Z,24.90
2018-09-30T15:04:54.046Z,21.47
2018-09-30T15:07:21.823Z,27.47
2018-09-30T15:09:49.360Z,26.87
2018-09-30T15:12:16.967Z,26.60
2018-09-30T15:14:44.540Z,18.73
2018-09-30T15:17:12.209Z,20.67
2018-09-30T15:19:39.775Z,24.60
2018-09-30T15:22:07.379Z,29.07
2018-09-30T15:24:34.908Z,19.10
2018-09-30T15:27:02.437Z,18.93
2018-09-30T15:29:30.002Z,17.30
2018-09-30T15:31:57.564Z,23.00
2018-09-30T15:34:25.172Z,26.87
2018-09-30T15:36:52.722Z,20.30
2018-09-30T15:39:20.310Z,27.40
2018-09-30T15:41:47.911Z,24.77
2018-09-30T15:44:15.499Z,19.63
2018-09-30T15:46:43.105Z,16.37
2018-09-30T15:49:10.696Z,22.60
2018-09-30T15:51:38.269Z,22.73
2018-09-30T15:54:06.022Z,25.20
2018-09-30T15:56:33.620Z,21.23
2018-09-30T15:59:01.230Z,21.20
2018-09-30T16:01:28.829Z,25.73
2018-09-30T16:03:56.390Z,20.47
2018-09-30T16:06:24.252Z,28.13
2018-09-30T16:08:51.956Z,18.93
2018-09-30T16:11:19.538Z,18.10
2018-09-30T16:13:47.137Z,19.20
2018-09-30T16:16:14.747Z,23.80
2018-09-30T16:18:42.428Z,23.87
2018-09-30T16:21:10.072Z,28.40
2018-09-30T16:23:37.693Z,27.73
2018-09-30T16:26:05.340Z,23.77
2018-09-30T16:28:32.984Z,24.03
2018-09-30T16:31:00.541Z,25.43
2018-09-30T16:33:28.074Z,20.00
2018-09-30T16:35:55.672Z,21.07
2018-09-30T16:38:23.359Z,22.53
2018-09-30T16:40:50.997Z,20.40
2018-09-30T16:43:18.581Z,24.90
2018-09-30T16:45:46.224Z,17.33
2018-09-30T16:48:14.677Z,20.00
2018-09-30T16:50:42.326Z,26.00
2018-09-30T16:53:09.869Z,23.47
2018-09-30T16:55:37.517Z,21.53
2018-09-30T16:58:05.692Z,22.27
2018-09-30T17:00:33.294Z,21.40
2018-09-30T17:03:00.821Z,24.77
2018-09-30T17:05:28.491Z,24.20
2018-09-30T17:07:56.145Z,20.70
2018-09-30T17:10:23.700Z,22.93
2018-09-30T17:12:51.293Z,20.87
2018-09-30T17:15:18.957Z,19.63
2018-09-30T17:17:46.613Z,22.30
2018-09-30T17:20:14.238Z,23.60
2018-09-30T17:22:41.887Z,23.67
2018-09-30T17:25:09.539Z,25.63
2018-09-30T17:27:37.267Z,25.10
2018-09-30T17:30:05.008Z,26.13
2018-09-30T17:32:33.219Z,19.20
2018-09-30T17:35:00.885Z,19.57
2018-09-30T17:37:28.537Z,35.83
2018-09-30T17:39:56.200Z,24.07
2018-09-30T17:42:23.840Z,20.40
2018-09-30T17:44:51.502Z,25.57
2018-09-30T17:47:19.205Z,22.83
2018-09-30T17:49:46.839Z,31.33
2018-09-30T17:52:15.143Z,26.57
2018-09-30T17:54:42.775Z,28.30
2018-09-30T17:57:10.429Z,27.60
2018-09-30T17:59:38.077Z,27.13
2018-09-30T18:02:05.891Z,22.97
2018-09-30T18:04:33.555Z,21.97
2018-09-30T18:07:01.282Z,26.80
2018-09-30T18:09:29.734Z,29.90
2018-09-30T18:11:58.349Z,31.80
2018-09-30T18:14:26.251Z,52.40
2018-09-30T18:16:54.046Z,41.97
2018-09-30T18:19:21.768Z,33.33
2018-09-30T18:21:49.473Z,27.73
2018-09-30T18:24:17.153Z,32.07
2018-09-30T18:26:44.817Z,38.90
2018-09-30T18:29:12.611Z,36.93
2018-09-30T18:31:40.400Z,32.47
2018-09-30T18:34:08.595Z,24.17
2018-09-30T18:36:36.284Z,30.50
2018-09-30T18:39:06.735Z,29.23
2018-09-30T18:41:34.452Z,28.30
2018-09-30T18:44:02.148Z,25.40
2018-09-30T18:46:29.827Z,30.60
2018-09-30T18:48:57.550Z,26.87
2018-09-30T18:51:25.292Z,28.43
2018-09-30T18:53:53.017Z,28.83
2018-09-30T18:56:20.759Z,21.90
2018-09-30T18:58:48.462Z,24.90
2018-09-30T19:01:16.167Z,31.30
2018-09-30T19:03:43.862Z,27.00
2018-09-30T19:06:11.549Z,34.40
2018-09-30T19:08:39.834Z,33.37
2018-09-30T19:11:07.594Z,30.33
2018-09-30T19:13:35.245Z,34.17
2018-09-30T19:16:03.284Z,54.97
2018-09-30T19:18:30.907Z,35.40
2018-09-30T19:20:58.708Z,38.23
2018-09-30T19:23:26.438Z,35.87
2018-09-30T19:25:54.375Z,37.63
2018-09-30T19:28:22.008Z,30.63
2018-09-30T19:30:49.717Z,29.27
2018-09-30T19:33:17.348Z,31.00
2018-09-30T19:35:45.252Z,29.87
2018-09-30T19:38:14.253Z,31.67
2018-09-30T19:40:41.994Z,32.80
2018-09-30T19:43:09.681Z,39.03
2018-09-30T19:45:37.407Z,32.90
2018-09-30T19:48:05.144Z,36.73
2018-09-30T19:50:32.807Z,38.10
2018-09-30T19:53:00.463Z,34.33
2018-09-30T19:55:29.159Z,36.50
2018-09-30T19:57:56.849Z,36.20
2018-09-30T20:00:24.528Z,42.60
2018-09-30T20:02:52.211Z,47.53
2018-09-30T20:05:19.894Z,62.00
2018-09-30T20:07:47.553Z,61.37
2018-09-30T20:10:15.170Z,65.50
2018-09-30T20:12:43.495Z,58.10
2018-09-30T20:15:11.163Z,48.90
2018-09-30T20:17:38.854Z,37.10
2018-09-30T20:20:07.301Z,33.73
2018-09-30T20:22:35.949Z,36.47
2018-09-30T20:25:03.698Z,38.57
2018-09-30T20:27:31.383Z,32.47
2018-09-30T20:29:59.020Z,40.10
2018-09-30T20:32:26.665Z,35.00
2018-09-30T20:34:54.341Z,35.27
2018-09-30T20:37:21.993Z,53.07
2018-09-30T20:39:49.629Z,54.00
2018-09-30T20:42:17.761Z,40.70
2018-09-30T20:44:45.370Z,37.50
2018-09-30T20:47:12.952Z,32.23
2018-09-30T20:49:40.546Z,37.30
2018-09-30T20:52:08.099Z,37.27
2018-09-30T20:54:35.707Z,39.70
2018-09-30T20:57:03.264Z,33.50
2018-09-30T20:59:30.853Z,31.53
2018-09-30T21:01:58.447Z,29.80
2018-09-30T21:04:26.008Z,32.20
2018-09-30T21:06:53.590Z,33.83
2018-09-30T21:09:21.893Z,33.23
2018-09-30T21:11:49.453Z,39.60
2018-09-30T21:14:17.061Z,36.00
2018-09-30T21:16:44.725Z,30.13
2018-09-30T21:19:12.320Z,31.77
2018-09-30T21:21:39.878Z,41.40
2018-09-30T21:24:07.443Z,35.27
2018-09-30T21:26:35.044Z,33.03
2018-09-30T21:29:02.682Z,34.23
2018-09-30T21:31:30.231Z,32.53
2018-09-30T21:33:57.795Z,32.93
2018-09-30T21:36:25.469Z,30.37
2018-09-30T21:38:53.229Z,36.23
2018-09-30T21:41:20.789Z,37.27
2018-09-30T21:43:48.350Z,36.73
2018-09-30T21:46:15.941Z,29.00
2018-09-30T21:48:43.575Z,35.80
2018-09-30T21:51:11.073Z,33.93
2018-09-30T21:53:38.637Z,32.73
2018-09-30T21:56:06.253Z,30.90
2018-09-30T21:58:33.789Z,31.23
2018-09-30T22:01:02.543Z,32.70
2018-09-30T22:03:30.241Z,31.53
2018-09-30T22:05:57.857Z,42.10
2018-09-30T22:08:25.519Z,37.87
2018-09-30T22:10:53.109Z,44.97
2018-09-30T22:13:20.667Z,37.57
2018-09-30T22:15:48.247Z,32.43
2018-09-30T22:18:15.793Z,31.57
2018-09-30T22:20:43.346Z,33.90
2018-09-30T22:23:11.047Z,32.80
2018-09-30T22:25:38.569Z,35.43
2018-09-30T22:28:06.274Z,33.60
2018-09-30T22:30:34.006Z,36.70
2018-09-30T22:33:01.773Z,33.90
2018-09-30T22:35:29.360Z,34.23
2018-09-30T22:37:56.932Z,34.53
2018-09-30T22:40:24.725Z,40.70
2018-09-30T22:42:52.240Z,39.30
2018-09-30T22:45:19.836Z,35.23
2018-09-30T22:47:47.357Z,39.07
2018-09-30T22:50:14.953Z,41.53
2018-09-30T22:52:42.526Z,37.77
2018-09-30T22:55:10.074Z,35.90
2018-09-30T22:57:37.626Z,34.50
2018-09-30T23:00:05.732Z,35.90
2018-09-30T23:02:33.312Z,34.00
2018-09-30T23:05:00.846Z,31.50
2018-09-30T23:07:28.428Z,35.23
2018-09-30T23:09:55.961Z,31.00
2018-09-30T23:12:23.547Z,40.77
2018-09-30T23:14:51.426Z,35.43
2018-09-30T23:17:19.090Z,34.63
2018-09-30T23:19:46.668Z,34.90
2018-09-30T23:22:14.174Z,33.70
2018-09-30T23:24:41.705Z,31.40
2018-09-30T23:27:09.257Z,30.00
2018-09-30T23:29:36.819Z,27.27
2018-09-30T23:32:04.383Z,38.47
2018-09-30T23:34:31.929Z,32.37
2018-09-30T23:36:59.487Z,35.40
2018-09-30T23:39:27.053Z,35.33
2018-09-30T23:41:54.608Z,38.93
2018-09-30T23:44:22.144Z,33.05
2018-09-30T23:46:49.649Z,34.07
2018-09-30T23:49:17.233Z,33.40
2018-09-30T23:51:44.818Z,34.07
2018-09-30T23:54:12.413Z,38.03
2018-09-30T23:56:39.933Z,31.40
2018-09-30T23:59:07.604Z,37.48
